sensor_id;sensor_type;location;lat;lon;timestamp;pressure;altitude;pressure_sealevel;temperature;humidity
39455;BME280;25155;41.890;23.446;2023-02-12T00:00:11;92610.63;;;-5.08;49.18
39455;BME280;25155;41.890;23.446;2023-02-12T00:02:40;92616.19;;;-5.04;48.42
39455;BME280;25155;41.890;23.446;2023-02-12T00:05:09;92622.13;;;-5.03;48.61
39455;BME280;25155;41.890;23.446;2023-02-12T00:07:36;92605.97;;;-5.04;48.90
39455;BME280;25155;41.890;23.446;2023-02-12T00:10:04;92598.13;;;-5.02;48.91
39455;BME280;25155;41.890;23.446;2023-02-12T00:12:31;92604.50;;;-4.98;48.83
39455;BME280;25155;41.890;23.446;2023-02-12T00:14:59;92599.41;;;-4.98;49.10
39455;BME280;25155;41.890;23.446;2023-02-12T00:17:26;92598.59;;;-4.99;48.62
39455;BME280;25155;41.890;23.446;2023-02-12T00:19:53;92599.22;;;-4.97;49.17
39455;BME280;25155;41.890;23.446;2023-02-12T00:22:22;92597.78;;;-4.99;49.35
39455;BME280;25155;41.890;23.446;2023-02-12T00:24:49;92596.72;;;-5.05;49.48
39455;BME280;25155;41.890;23.446;2023-02-12T00:27:16;92601.72;;;-5.12;49.48
39455;BME280;25155;41.890;23.446;2023-02-12T00:29:44;92587.38;;;-5.21;49.33
39455;BME280;25155;41.890;23.446;2023-02-12T00:32:11;92598.28;;;-5.27;49.37
39455;BME280;25155;41.890;23.446;2023-02-12T00:34:39;92594.78;;;-5.26;49.24
39455;BME280;25155;41.890;23.446;2023-02-12T00:37:07;92588.06;;;-5.27;49.59
39455;BME280;25155;41.890;23.446;2023-02-12T00:39:35;92590.44;;;-5.26;49.93
39455;BME280;25155;41.890;23.446;2023-02-12T00:42:03;92602.78;;;-5.29;50.45
39455;BME280;25155;41.890;23.446;2023-02-12T00:44:31;92599.31;;;-5.36;50.09
39455;BME280;25155;41.890;23.446;2023-02-12T00:46:59;92595.31;;;-5.39;49.95
39455;BME280;25155;41.890;23.446;2023-02-12T00:49:27;92590.66;;;-5.35;50.21
39455;BME280;25155;41.890;23.446;2023-02-12T00:51:54;92587.16;;;-5.34;50.19
39455;BME280;25155;41.890;23.446;2023-02-12T00:54:21;92590.00;;;-5.29;50.35
39455;BME280;25155;41.890;23.446;2023-02-12T00:56:50;92594.78;;;-5.26;50.16
39455;BME280;25155;41.890;23.446;2023-02-12T00:59:17;92583.88;;;-5.20;49.85
39455;BME280;25155;41.890;23.446;2023-02-12T01:01:45;92576.84;;;-5.18;49.72
39455;BME280;25155;41.890;23.446;2023-02-12T01:04:12;92570.44;;;-5.22;49.50
39455;BME280;25155;41.890;23.446;2023-02-12T01:06:39;92579.72;;;-5.21;49.60
39455;BME280;25155;41.890;23.446;2023-02-12T01:09:06;92568.53;;;-5.20;49.56
39455;BME280;25155;41.890;23.446;2023-02-12T01:11:34;92562.72;;;-5.14;49.07
39455;BME280;25155;41.890;23.446;2023-02-12T01:14:03;92560.88;;;-5.20;49.27
39455;BME280;25155;41.890;23.446;2023-02-12T01:16:31;92564.38;;;-5.21;48.95
39455;BME280;25155;41.890;23.446;2023-02-12T01:19:02;92568.53;;;-5.20;49.14
39455;BME280;25155;41.890;23.446;2023-02-12T01:21:33;92572.84;;;-5.20;49.53
39455;BME280;25155;41.890;23.446;2023-02-12T01:24:00;92551.78;;;-5.23;49.32
39455;BME280;25155;41.890;23.446;2023-02-12T01:26:28;92552.06;;;-5.17;49.16
39455;BME280;25155;41.890;23.446;2023-02-12T01:28:57;92556.22;;;-5.16;49.41
39455;BME280;25155;41.890;23.446;2023-02-12T01:31:29;92550.50;;;-5.18;49.22
39455;BME280;25155;41.890;23.446;2023-02-12T01:33:57;92555.59;;;-5.42;49.70
39455;BME280;25155;41.890;23.446;2023-02-12T01:36:26;92547.97;;;-5.27;49.30
39455;BME280;25155;41.890;23.446;2023-02-12T01:38:55;92548.44;;;-5.23;49.47
39455;BME280;25155;41.890;23.446;2023-02-12T01:41:24;92544.28;;;-5.24;49.27
39455;BME280;25155;41.890;23.446;2023-02-12T01:44:10;92533.44;;;-5.26;49.33
39455;BME280;25155;41.890;23.446;2023-02-12T01:46:40;92528.00;;;-5.23;49.44
39455;BME280;25155;41.890;23.446;2023-02-12T01:49:12;92530.72;;;-5.25;48.99
39455;BME280;25155;41.890;23.446;2023-02-12T01:51:41;92524.88;;;-5.33;49.63
39455;BME280;25155;41.890;23.446;2023-02-12T01:54:11;92519.56;;;-5.32;49.47
39455;BME280;25155;41.890;23.446;2023-02-12T01:56:39;92514.66;;;-5.33;49.42
39455;BME280;25155;41.890;23.446;2023-02-12T01:59:08;92527.16;;;-5.47;49.98
39455;BME280;25155;41.890;23.446;2023-02-12T02:01:36;92516.53;;;-5.58;50.60
39455;BME280;25155;41.890;23.446;2023-02-12T02:04:07;92517.69;;;-5.61;50.61
39455;BME280;25155;41.890;23.446;2023-02-12T02:06:41;92505.88;;;-5.62;50.39
39455;BME280;25155;41.890;23.446;2023-02-12T02:09:10;92515.13;;;-5.61;50.58
39455;BME280;25155;41.890;23.446;2023-02-12T02:11:38;92515.13;;;-5.61;50.89
39455;BME280;25155;41.890;23.446;2023-02-12T02:14:23;92517.75;;;-5.69;50.70
39455;BME280;25155;41.890;23.446;2023-02-12T02:17:13;92507.06;;;-5.73;50.55
39455;BME280;25155;41.890;23.446;2023-02-12T02:20:00;92504.97;;;-5.69;50.58
39455;BME280;25155;41.890;23.446;2023-02-12T02:22:37;92505.00;;;-5.78;51.22
39455;BME280;25155;41.890;23.446;2023-02-12T02:25:35;92506.63;;;-5.85;50.89
39455;BME280;25155;41.890;23.446;2023-02-12T02:28:21;92513.50;;;-5.85;50.44
39455;BME280;25155;41.890;23.446;2023-02-12T02:30:55;92517.53;;;-5.91;50.80
39455;BME280;25155;41.890;23.446;2023-02-12T02:33:35;92528.69;;;-5.92;51.20
39455;BME280;25155;41.890;23.446;2023-02-12T02:36:13;92540.50;;;-5.91;50.61
39455;BME280;25155;41.890;23.446;2023-02-12T02:38:44;92536.34;;;-5.92;50.78
39455;BME280;25155;41.890;23.446;2023-02-12T02:41:21;92527.91;;;-5.92;51.07
39455;BME280;25155;41.890;23.446;2023-02-12T02:43:52;92540.50;;;-5.91;50.95
39455;BME280;25155;41.890;23.446;2023-02-12T02:46:25;92537.28;;;-5.93;51.09
39455;BME280;25155;41.890;23.446;2023-02-12T02:48:59;92543.06;;;-5.91;50.60
39455;BME280;25155;41.890;23.446;2023-02-12T02:51:30;92533.63;;;-5.90;50.48
39455;BME280;25155;41.890;23.446;2023-02-12T02:54:03;92525.50;;;-5.94;50.76
39455;BME280;25155;41.890;23.446;2023-02-12T02:56:35;92529.50;;;-6.00;50.94
39455;BME280;25155;41.890;23.446;2023-02-12T02:59:06;92527.94;;;-6.01;50.95
39455;BME280;25155;41.890;23.446;2023-02-12T03:01:40;92527.31;;;-6.03;51.08
39455;BME280;25155;41.890;23.446;2023-02-12T03:04:13;92521.56;;;-6.05;50.55
39455;BME280;25155;41.890;23.446;2023-02-12T03:06:46;92522.53;;;-6.06;50.65
39455;BME280;25155;41.890;23.446;2023-02-12T03:09:19;92532.28;;;-6.09;50.49
39455;BME280;25155;41.890;23.446;2023-02-12T03:11:49;92514.09;;;-6.15;50.70
39455;BME280;25155;41.890;23.446;2023-02-12T03:14:22;92538.19;;;-6.17;50.90
39455;BME280;25155;41.890;23.446;2023-02-12T03:16:57;92525.44;;;-6.17;50.89
39455;BME280;25155;41.890;23.446;2023-02-12T03:19:28;92526.22;;;-6.17;50.91
39455;BME280;25155;41.890;23.446;2023-02-12T03:22:00;92524.66;;;-6.18;50.83
39455;BME280;25155;41.890;23.446;2023-02-12T03:24:32;92520.81;;;-6.22;50.80
39455;BME280;25155;41.890;23.446;2023-02-12T03:27:05;92526.88;;;-6.23;50.66
39455;BME280;25155;41.890;23.446;2023-02-12T03:29:34;92515.44;;;-6.27;50.84
39455;BME280;25155;41.890;23.446;2023-02-12T03:32:13;92514.97;;;-6.30;50.54
39455;BME280;25155;41.890;23.446;2023-02-12T03:34:48;92510.66;;;-6.30;50.73
39455;BME280;25155;41.890;23.446;2023-02-12T03:37:20;92509.25;;;-6.32;50.93
39455;BME280;25155;41.890;23.446;2023-02-12T03:39:52;92503.72;;;-6.61;51.36
39455;BME280;25155;41.890;23.446;2023-02-12T03:42:30;92496.56;;;-6.57;51.23
39455;BME280;25155;41.890;23.446;2023-02-12T03:45:03;92493.50;;;-6.61;51.86
39455;BME280;25155;41.890;23.446;2023-02-12T03:47:43;92501.03;;;-6.67;50.99
39455;BME280;25155;41.890;23.446;2023-02-12T03:50:15;92504.38;;;-6.67;51.26
39455;BME280;25155;41.890;23.446;2023-02-12T03:52:45;92501.53;;;-6.72;51.31
39455;BME280;25155;41.890;23.446;2023-02-12T03:55:13;92508.19;;;-6.71;51.28
39455;BME280;25155;41.890;23.446;2023-02-12T03:57:43;92505.16;;;-6.66;51.37
39455;BME280;25155;41.890;23.446;2023-02-12T04:00:15;92494.53;;;-6.78;51.63
39455;BME280;25155;41.890;23.446;2023-02-12T04:02:45;92504.09;;;-6.80;51.33
39455;BME280;25155;41.890;23.446;2023-02-12T04:05:18;92501.06;;;-6.84;51.89
39455;BME280;25155;41.890;23.446;2023-02-12T04:07:46;92491.50;;;-6.82;51.61
39455;BME280;25155;41.890;23.446;2023-02-12T04:10:15;92494.84;;;-6.81;52.37
39455;BME280;25155;41.890;23.446;2023-02-12T04:12:49;92487.06;;;-6.96;52.85
39455;BME280;25155;41.890;23.446;2023-02-12T04:15:34;92494.88;;;-7.06;52.56
39455;BME280;25155;41.890;23.446;2023-02-12T04:18:10;92492.47;;;-7.24;54.19
39455;BME280;25155;41.890;23.446;2023-02-12T04:20:47;92461.59;;;-7.37;54.58
39455;BME280;25155;41.890;23.446;2023-02-12T04:23:33;92457.66;;;-7.32;54.03
39455;BME280;25155;41.890;23.446;2023-02-12T04:26:11;92467.66;;;-7.22;53.73
39455;BME280;25155;41.890;23.446;2023-02-12T04:28:50;92464.00;;;-7.28;54.46
39455;BME280;25155;41.890;23.446;2023-02-12T04:31:23;92461.13;;;-7.24;54.08
39455;BME280;25155;41.890;23.446;2023-02-12T04:34:03;92457.47;;;-7.30;53.61
39455;BME280;25155;41.890;23.446;2023-02-12T04:36:36;92460.34;;;-7.41;53.47
39455;BME280;25155;41.890;23.446;2023-02-12T04:39:07;92464.97;;;-7.45;54.08
39455;BME280;25155;41.890;23.446;2023-02-12T04:41:37;92473.88;;;-7.41;53.94
39455;BME280;25155;41.890;23.446;2023-02-12T04:44:16;92481.34;;;-7.39;53.88
39455;BME280;25155;41.890;23.446;2023-02-12T04:46:44;92477.34;;;-7.34;54.23
39455;BME280;25155;41.890;23.446;2023-02-12T04:49:14;92473.09;;;-7.33;54.07
39455;BME280;25155;41.890;23.446;2023-02-12T04:51:42;92488.50;;;-7.43;53.68
39455;BME280;25155;41.890;23.446;2023-02-12T04:54:09;92485.97;;;-7.43;54.05
39455;BME280;25155;41.890;23.446;2023-02-12T04:56:37;92484.38;;;-7.44;54.03
39455;BME280;25155;41.890;23.446;2023-02-12T04:59:04;92503.81;;;-7.27;54.46
39455;BME280;25155;41.890;23.446;2023-02-12T05:01:33;92504.59;;;-7.34;54.76
39455;BME280;25155;41.890;23.446;2023-02-12T05:04:01;92503.50;;;-7.32;54.76
39455;BME280;25155;41.890;23.446;2023-02-12T05:06:31;92494.56;;;-7.28;54.95
39455;BME280;25155;41.890;23.446;2023-02-12T05:09:01;92490.25;;;-7.19;54.61
39455;BME280;25155;41.890;23.446;2023-02-12T05:11:28;92506.19;;;-7.09;54.49
39455;BME280;25155;41.890;23.446;2023-02-12T05:13:55;92502.81;;;-7.01;54.50
39455;BME280;25155;41.890;23.446;2023-02-12T05:16:22;92498.69;;;-6.94;54.59
39455;BME280;25155;41.890;23.446;2023-02-12T05:18:50;92491.34;;;-6.88;53.80
39455;BME280;25155;41.890;23.446;2023-02-12T05:21:17;92499.47;;;-6.85;53.97
39455;BME280;25155;41.890;23.446;2023-02-12T05:23:46;92497.38;;;-6.81;53.89
39455;BME280;25155;41.890;23.446;2023-02-12T05:26:16;92490.06;;;-6.84;53.67
39455;BME280;25155;41.890;23.446;2023-02-12T05:28:44;92500.59;;;-6.96;54.71
39455;BME280;25155;41.890;23.446;2023-02-12T05:31:13;92504.44;;;-7.00;54.74
39455;BME280;25155;41.890;23.446;2023-02-12T05:33:41;92504.56;;;-6.93;54.70
39455;BME280;25155;41.890;23.446;2023-02-12T05:36:13;92502.97;;;-6.86;54.19
39455;BME280;25155;41.890;23.446;2023-02-12T05:38:40;92503.13;;;-6.79;54.62
39455;BME280;25155;41.890;23.446;2023-02-12T05:41:12;92500.25;;;-6.84;55.69
39455;BME280;25155;41.890;23.446;2023-02-12T05:43:41;92492.91;;;-6.79;55.48
39455;BME280;25155;41.890;23.446;2023-02-12T05:46:09;92485.75;;;-6.76;54.94
39455;BME280;25155;41.890;23.446;2023-02-12T05:48:38;92494.66;;;-6.63;54.92
39455;BME280;25155;41.890;23.446;2023-02-12T05:51:07;92487.31;;;-6.58;54.34
39455;BME280;25155;41.890;23.446;2023-02-12T05:53:36;92487.13;;;-6.57;54.45
39455;BME280;25155;41.890;23.446;2023-02-12T05:56:13;92499.09;;;-6.57;54.69
39455;BME280;25155;41.890;23.446;2023-02-12T05:58:43;92504.53;;;-6.60;54.51
39455;BME280;25155;41.890;23.446;2023-02-12T06:01:13;92515.69;;;-6.61;54.32
39455;BME280;25155;41.890;23.446;2023-02-12T06:03:41;92514.41;;;-6.57;54.40
39455;BME280;25155;41.890;23.446;2023-02-12T06:06:09;92515.50;;;-6.52;54.46
39455;BME280;25155;41.890;23.446;2023-02-12T06:08:37;92530.78;;;-6.43;54.09
39455;BME280;25155;41.890;23.446;2023-02-12T06:11:11;92530.94;;;-6.45;54.54
39455;BME280;25155;41.890;23.446;2023-02-12T06:13:39;92536.19;;;-6.38;54.52
39455;BME280;25155;41.890;23.446;2023-02-12T06:16:06;92538.09;;;-6.32;54.64
39455;BME280;25155;41.890;23.446;2023-02-12T06:18:42;92547.00;;;-6.28;54.39
39455;BME280;25155;41.890;23.446;2023-02-12T06:21:09;92552.41;;;-6.23;54.35
39455;BME280;25155;41.890;23.446;2023-02-12T06:23:36;92556.22;;;-6.19;54.09
39455;BME280;25155;41.890;23.446;2023-02-12T06:26:04;92553.81;;;-6.12;54.36
39455;BME280;25155;41.890;23.446;2023-02-12T06:28:32;92547.91;;;-6.12;54.64
39455;BME280;25155;41.890;23.446;2023-02-12T06:31:00;92559.69;;;-6.11;54.62
39455;BME280;25155;41.890;23.446;2023-02-12T06:33:27;92558.63;;;-6.17;55.19
39455;BME280;25155;41.890;23.446;2023-02-12T06:35:54;92559.41;;;-6.17;55.06
39455;BME280;25155;41.890;23.446;2023-02-12T06:38:21;92568.00;;;-6.09;54.91
39455;BME280;25155;41.890;23.446;2023-02-12T06:40:49;92570.88;;;-6.04;54.83
39455;BME280;25155;41.890;23.446;2023-02-12T06:43:16;92572.56;;;-5.97;54.48
39455;BME280;25155;41.890;23.446;2023-02-12T06:45:45;92566.81;;;-5.90;54.32
39455;BME280;25155;41.890;23.446;2023-02-12T06:48:12;92564.13;;;-5.97;55.14
39455;BME280;25155;41.890;23.446;2023-02-12T06:50:40;92572.25;;;-5.93;54.77
39455;BME280;25155;41.890;23.446;2023-02-12T06:53:07;92578.31;;;-5.86;55.17
39455;BME280;25155;41.890;23.446;2023-02-12T06:55:34;92581.94;;;-5.81;55.10
39455;BME280;25155;41.890;23.446;2023-02-12T06:58:05;92588.44;;;-5.78;54.68
39455;BME280;25155;41.890;23.446;2023-02-12T07:00:32;92582.84;;;-5.73;54.64
39455;BME280;25155;41.890;23.446;2023-02-12T07:03:01;92587.63;;;-5.70;54.61
39455;BME280;25155;41.890;23.446;2023-02-12T07:05:28;92596.88;;;-5.61;54.30
39455;BME280;25155;41.890;23.446;2023-02-12T07:07:55;92597.00;;;-5.54;54.54
39455;BME280;25155;41.890;23.446;2023-02-12T07:10:22;92602.56;;;-5.51;54.74
39455;BME280;25155;41.890;23.446;2023-02-12T07:12:49;92612.44;;;-5.48;54.77
39455;BME280;25155;41.890;23.446;2023-02-12T07:15:17;92612.75;;;-5.43;54.43
39455;BME280;25155;41.890;23.446;2023-02-12T07:17:44;92612.75;;;-5.43;54.10
39455;BME280;25155;41.890;23.446;2023-02-12T07:20:13;92610.97;;;-5.42;53.44
39455;BME280;25155;41.890;23.446;2023-02-12T07:22:40;92605.53;;;-5.39;53.91
39455;BME280;25155;41.890;23.446;2023-02-12T07:25:08;92611.09;;;-5.35;53.57
39455;BME280;25155;41.890;23.446;2023-02-12T07:27:35;92611.75;;;-5.33;54.46
39455;BME280;25155;41.890;23.446;2023-02-12T07:30:03;92611.69;;;-5.25;55.11
39455;BME280;25155;41.890;23.446;2023-02-12T07:32:31;92608.94;;;-5.24;55.96
39455;BME280;25155;41.890;23.446;2023-02-12T07:34:58;92610.22;;;-5.19;55.82
39455;BME280;25155;41.890;23.446;2023-02-12T07:37:27;92596.94;;;-5.15;55.90
39455;BME280;25155;41.890;23.446;2023-02-12T07:39:54;92600.25;;;-5.06;55.68
39455;BME280;25155;41.890;23.446;2023-02-12T07:42:21;92600.97;;;-4.97;55.48
39455;BME280;25155;41.890;23.446;2023-02-12T07:44:48;92601.91;;;-4.90;55.55
39455;BME280;25155;41.890;23.446;2023-02-12T07:47:16;92602.19;;;-4.85;55.26
39455;BME280;25155;41.890;23.446;2023-02-12T07:49:43;92602.13;;;-4.77;55.28
39455;BME280;25155;41.890;23.446;2023-02-12T07:52:10;92598.06;;;-4.71;55.02
39455;BME280;25155;41.890;23.446;2023-02-12T07:54:38;92603.63;;;-4.68;54.93
39455;BME280;25155;41.890;23.446;2023-02-12T07:57:06;92598.00;;;-4.63;54.88
39455;BME280;25155;41.890;23.446;2023-02-12T07:59:33;92596.22;;;-4.62;54.76
39455;BME280;25155;41.890;23.446;2023-02-12T08:02:00;92606.56;;;-4.56;54.72
39455;BME280;25155;41.890;23.446;2023-02-12T08:04:27;92596.66;;;-4.51;54.53
39455;BME280;25155;41.890;23.446;2023-02-12T08:06:55;92594.53;;;-4.47;54.58
39455;BME280;25155;41.890;23.446;2023-02-12T08:09:25;92598.94;;;-4.41;54.33
39455;BME280;25155;41.890;23.446;2023-02-12T08:11:54;92592.34;;;-4.35;54.61
39455;BME280;25155;41.890;23.446;2023-02-12T08:14:21;92571.09;;;-4.36;54.27
39455;BME280;25155;41.890;23.446;2023-02-12T08:16:49;92581.84;;;-4.25;54.45
39455;BME280;25155;41.890;23.446;2023-02-12T08:19:17;92586.72;;;-4.16;54.56
39455;BME280;25155;41.890;23.446;2023-02-12T08:21:44;92589.56;;;-4.10;54.61
39455;BME280;25155;41.890;23.446;2023-02-12T08:24:13;92598.63;;;-4.08;55.31
39455;BME280;25155;41.890;23.446;2023-02-12T08:26:40;92597.94;;;-4.02;55.00
39455;BME280;25155;41.890;23.446;2023-02-12T08:29:10;92600.75;;;-3.97;54.93
39455;BME280;25155;41.890;23.446;2023-02-12T08:31:40;92594.50;;;-3.94;54.94
39455;BME280;25155;41.890;23.446;2023-02-12T08:34:15;92600.75;;;-3.82;54.78
39455;BME280;25155;41.890;23.446;2023-02-12T08:36:43;92599.88;;;-3.74;55.40
39455;BME280;25155;41.890;23.446;2023-02-12T08:39:10;92597.41;;;-3.67;55.48
39455;BME280;25155;41.890;23.446;2023-02-12T08:41:38;92606.94;;;-3.61;55.19
39455;BME280;25155;41.890;23.446;2023-02-12T08:44:09;92599.44;;;-3.63;55.17
39455;BME280;25155;41.890;23.446;2023-02-12T08:46:38;92614.16;;;-3.50;54.73
39455;BME280;25155;41.890;23.446;2023-02-12T08:49:09;92607.72;;;-3.46;54.94
39455;BME280;25155;41.890;23.446;2023-02-12T08:51:41;92620.44;;;-3.38;54.80
39455;BME280;25155;41.890;23.446;2023-02-12T08:54:11;92614.41;;;-3.30;54.63
39455;BME280;25155;41.890;23.446;2023-02-12T08:56:39;92608.31;;;-3.29;54.70
39455;BME280;25155;41.890;23.446;2023-02-12T08:59:07;92615.88;;;-3.21;54.21
39455;BME280;25155;41.890;23.446;2023-02-12T09:01:38;92621.44;;;-3.17;54.48
39455;BME280;25155;41.890;23.446;2023-02-12T09:04:07;92626.03;;;-3.12;54.43
39455;BME280;25155;41.890;23.446;2023-02-12T09:06:35;92628.50;;;-3.04;54.22
39455;BME280;25155;41.890;23.446;2023-02-12T09:09:02;92636.50;;;-2.92;54.25
39455;BME280;25155;41.890;23.446;2023-02-12T09:11:30;92634.81;;;-2.85;54.44
39455;BME280;25155;41.890;23.446;2023-02-12T09:13:58;92631.34;;;-2.77;53.90
39455;BME280;25155;41.890;23.446;2023-02-12T09:16:27;92632.22;;;-2.70;53.45
39455;BME280;25155;41.890;23.446;2023-02-12T09:18:56;92634.63;;;-2.62;53.00
39455;BME280;25155;41.890;23.446;2023-02-12T09:21:24;92639.63;;;-2.54;50.34
39455;BME280;25155;41.890;23.446;2023-02-12T09:23:51;92635.97;;;-2.45;51.26
39455;BME280;25155;41.890;23.446;2023-02-12T09:26:21;92635.66;;;-2.35;51.44
39455;BME280;25155;41.890;23.446;2023-02-12T09:28:50;92633.91;;;-2.56;51.69
39455;BME280;25155;41.890;23.446;2023-02-12T09:31:21;92643.31;;;-2.41;50.81
39455;BME280;25155;41.890;23.446;2023-02-12T09:33:51;92635.72;;;-2.28;50.63
39455;BME280;25155;41.890;23.446;2023-02-12T09:36:20;92631.06;;;-2.18;50.41
39455;BME280;25155;41.890;23.446;2023-02-12T09:38:48;92630.41;;;-1.98;50.26
39455;BME280;25155;41.890;23.446;2023-02-12T09:44:23;92621.38;;;-1.59;50.19
39455;BME280;25155;41.890;23.446;2023-02-12T09:46:57;92628.38;;;-1.40;49.06
39455;BME280;25155;41.890;23.446;2023-02-12T09:49:40;92616.41;;;-1.19;49.34
39455;BME280;25155;41.890;23.446;2023-02-12T09:52:15;92617.06;;;-0.97;49.01
39455;BME280;25155;41.890;23.446;2023-02-12T09:54:44;92621.47;;;-0.84;49.36
39455;BME280;25155;41.890;23.446;2023-02-12T09:57:16;92624.63;;;-0.75;48.24
39455;BME280;25155;41.890;23.446;2023-02-12T09:59:50;92623.88;;;-0.63;46.17
39455;BME280;25155;41.890;23.446;2023-02-12T10:02:19;92615.19;;;-0.62;47.12
39455;BME280;25155;41.890;23.446;2023-02-12T10:04:48;92601.69;;;-0.64;47.95
39455;BME280;25155;41.890;23.446;2023-02-12T10:07:26;92610.63;;;-0.60;49.88
39455;BME280;25155;41.890;23.446;2023-02-12T10:10:11;92615.59;;;-0.51;48.80
39455;BME280;25155;41.890;23.446;2023-02-12T10:12:51;92611.63;;;-0.41;47.41
39455;BME280;25155;41.890;23.446;2023-02-12T10:15:36;92607.66;;;-0.30;46.91
39455;BME280;25155;41.890;23.446;2023-02-12T10:21:23;92596.56;;;-0.03;49.01
39455;BME280;25155;41.890;23.446;2023-02-12T10:24:10;92596.16;;;0.06;48.28
39455;BME280;25155;41.890;23.446;2023-02-12T10:26:42;92600.91;;;0.09;47.18
39455;BME280;25155;41.890;23.446;2023-02-12T10:29:16;92600.47;;;0.26;47.02
39455;BME280;25155;41.890;23.446;2023-02-12T10:31:47;92604.81;;;0.39;47.57
39455;BME280;25155;41.890;23.446;2023-02-12T10:34:17;92607.41;;;0.32;48.43
39455;BME280;25155;41.890;23.446;2023-02-12T10:36:47;92603.16;;;0.71;48.72
39455;BME280;25155;41.890;23.446;2023-02-12T10:39:20;92594.56;;;0.91;48.32
39455;BME280;25155;41.890;23.446;2023-02-12T10:41:54;92596.25;;;1.03;48.08
39455;BME280;25155;41.890;23.446;2023-02-12T10:44:22;92595.44;;;1.10;47.37
39455;BME280;25155;41.890;23.446;2023-02-12T10:46:50;92598.63;;;1.05;47.46
39455;BME280;25155;41.890;23.446;2023-02-12T10:49:19;92603.59;;;1.06;49.11
39455;BME280;25155;41.890;23.446;2023-02-12T10:51:59;92609.75;;;1.12;47.99
39455;BME280;25155;41.890;23.446;2023-02-12T10:54:35;92598.56;;;1.18;48.05
39455;BME280;25155;41.890;23.446;2023-02-12T10:57:25;92592.22;;;1.21;48.47
39455;BME280;25155;41.890;23.446;2023-02-12T10:59:54;92587.09;;;1.46;47.38
39455;BME280;25155;41.890;23.446;2023-02-12T11:02:26;92595.97;;;1.57;47.31
39455;BME280;25155;41.890;23.446;2023-02-12T11:04:55;92598.41;;;1.77;47.44
39455;BME280;25155;41.890;23.446;2023-02-12T11:07:24;92604.00;;;1.74;47.29
39455;BME280;25155;41.890;23.446;2023-02-12T11:09:55;92604.44;;;1.64;48.13
39455;BME280;25155;41.890;23.446;2023-02-12T11:12:31;92593.06;;;1.40;47.19
39455;BME280;25155;41.890;23.446;2023-02-12T11:15:03;92594.91;;;1.33;48.55
39455;BME280;25155;41.890;23.446;2023-02-12T11:17:35;92591.25;;;1.47;49.25
39455;BME280;25155;41.890;23.446;2023-02-12T11:20:18;92606.72;;;1.54;48.44
39455;BME280;25155;41.890;23.446;2023-02-12T11:22:51;92596.25;;;1.42;47.83
39455;BME280;25155;41.890;23.446;2023-02-12T11:25:23;92595.19;;;1.50;47.98
39455;BME280;25155;41.890;23.446;2023-02-12T11:28:05;92593.38;;;1.57;47.68
39455;BME280;25155;41.890;23.446;2023-02-12T11:30:32;92580.41;;;1.64;47.82
39455;BME280;25155;41.890;23.446;2023-02-12T11:33:20;92586.72;;;1.68;47.92
39455;BME280;25155;41.890;23.446;2023-02-12T11:35:50;92584.66;;;1.76;47.94
39455;BME280;25155;41.890;23.446;2023-02-12T11:38:23;92578.34;;;1.72;47.31
39455;BME280;25155;41.890;23.446;2023-02-12T11:40:57;92586.69;;;1.74;47.96
39455;BME280;25155;41.890;23.446;2023-02-12T11:43:26;92578.25;;;1.86;48.15
39455;BME280;25155;41.890;23.446;2023-02-12T11:45:57;92585.94;;;1.92;47.40
39455;BME280;25155;41.890;23.446;2023-02-12T11:48:29;92585.78;;;1.87;47.80
39455;BME280;25155;41.890;23.446;2023-02-12T11:51:01;92577.31;;;1.80;48.14
39455;BME280;25155;41.890;23.446;2023-02-12T11:53:32;92584.03;;;1.81;48.09
39455;BME280;25155;41.890;23.446;2023-02-12T11:56:02;92577.66;;;1.58;47.96
39455;BME280;25155;41.890;23.446;2023-02-12T11:58:32;92568.97;;;1.78;46.96
39455;BME280;25155;41.890;23.446;2023-02-12T12:01:06;92575.03;;;1.90;46.33
39455;BME280;25155;41.890;23.446;2023-02-12T12:03:42;92578.03;;;1.87;44.86
39455;BME280;25155;41.890;23.446;2023-02-12T12:06:25;92573.44;;;1.89;43.40
39455;BME280;25155;41.890;23.446;2023-02-12T12:09:01;92572.19;;;1.98;43.13
39455;BME280;25155;41.890;23.446;2023-02-12T12:11:36;92579.66;;;2.07;43.44
39455;BME280;25155;41.890;23.446;2023-02-12T12:14:12;92568.44;;;2.13;42.27
39455;BME280;25155;41.890;23.446;2023-02-12T12:16:48;92565.38;;;2.23;42.06
39455;BME280;25155;41.890;23.446;2023-02-12T12:19:54;92578.84;;;2.31;42.30
39455;BME280;25155;41.890;23.446;2023-02-12T12:22:38;92572.50;;;2.46;41.96
39455;BME280;25155;41.890;23.446;2023-02-12T12:25:15;92581.56;;;2.55;42.00
39455;BME280;25155;41.890;23.446;2023-02-12T12:27:55;92583.09;;;2.63;43.00
39455;BME280;25155;41.890;23.446;2023-02-12T12:33:29;92586.31;;;2.58;44.06
39455;BME280;25155;41.890;23.446;2023-02-12T12:39:14;92592.34;;;2.70;44.50
39455;BME280;25155;41.890;23.446;2023-02-12T12:42:06;92589.19;;;2.68;46.68
39455;BME280;25155;41.890;23.446;2023-02-12T12:44:50;92591.28;;;2.60;46.49
39455;BME280;25155;41.890;23.446;2023-02-12T12:47:28;92592.63;;;2.62;46.26
39455;BME280;25155;41.890;23.446;2023-02-12T12:50:17;92591.56;;;2.70;45.76
39455;BME280;25155;41.890;23.446;2023-02-12T12:53:06;92588.91;;;2.77;44.73
39455;BME280;25155;41.890;23.446;2023-02-12T12:55:59;92593.00;;;2.84;45.25
39455;BME280;25155;41.890;23.446;2023-02-12T12:58:41;92584.78;;;2.87;46.42
39455;BME280;25155;41.890;23.446;2023-02-12T13:01:32;92597.44;;;2.77;48.02
39455;BME280;25155;41.890;23.446;2023-02-12T13:04:31;92602.56;;;2.65;48.49
39455;BME280;25155;41.890;23.446;2023-02-12T13:07:12;92607.59;;;2.60;48.81
39455;BME280;25155;41.890;23.446;2023-02-12T13:09:58;92611.03;;;2.54;48.45
39455;BME280;25155;41.890;23.446;2023-02-12T13:12:46;92611.09;;;2.47;48.82
39455;BME280;25155;41.890;23.446;2023-02-12T13:15:27;92612.34;;;2.45;48.90
39455;BME280;25155;41.890;23.446;2023-02-12T13:18:05;92622.38;;;2.34;48.80
39455;BME280;25155;41.890;23.446;2023-02-12T13:20:41;92630.13;;;2.34;48.50
39455;BME280;25155;41.890;23.446;2023-02-12T13:23:15;92628.78;;;2.32;49.52
39455;BME280;25155;41.890;23.446;2023-02-12T13:25:50;92636.03;;;2.23;48.61
39455;BME280;25155;41.890;23.446;2023-02-12T13:28:25;92633.69;;;2.15;49.24